Time;durP1;ratioP1;P1;durP2;ratioP2;P2;SDS_P1;SDS_P2;PMS_P1;PMS_P2;Temp;Humidity;BMP_temperature;BMP_pressure;BME280_temperature;BME280_humidity;BME280_pressure;Samples;Min_cycle;Max_cycle;Signal;HPM_P1;HPM_P2
2022/05/12 03:01:30;;;;;;;0.70;0.60;;;21.70;54.50;;;;;;5658689;23;20504;-72
2022/05/12 03:03:57;;;;;;;0.70;0.63;;;21.60;54.30;;;;;;4993158;28;20472;-72
2022/05/12 03:06:23;;;;;;;0.60;0.60;;;21.60;54.70;;;;;;4994469;28;20445;-72
2022/05/12 03:08:50;;;;;;;0.60;0.60;;;21.50;55.00;;;;;;4996658;28;21032;-72
2022/05/12 03:11:17;;;;;;;0.60;0.53;;;21.40;55.40;;;;;;4996891;28;20460;-72
2022/05/12 03:13:43;;;;;;;0.70;0.60;;;21.40;55.70;;;;;;4996578;28;20456;-72
2022/05/12 03:16:12;;;;;;;0.80;0.60;;;21.40;55.90;;;;;;5116727;23;20492;-75
2022/05/12 03:18:40;;;;;;;0.90;0.70;;;21.40;56.00;;;;;;5004020;28;20537;-75
2022/05/12 03:21:07;;;;;;;0.70;0.60;;;21.30;56.20;;;;;;5003645;28;20500;-75
2022/05/12 03:23:33;;;;;;;0.60;0.60;;;21.30;56.70;;;;;;5003222;28;20440;-75
2022/05/12 03:26:00;;;;;;;0.70;0.70;;;21.20;56.90;;;;;;5003460;28;20457;-75
2022/05/12 03:28:27;;;;;;;0.60;0.60;;;21.10;57.20;;;;;;5002903;28;20489;-75
2022/05/12 03:30:54;;;;;;;0.70;0.70;;;21.10;57.50;;;;;;5003836;28;20453;-75
2022/05/12 03:33:21;;;;;;;0.60;0.60;;;21.10;57.50;;;;;;5003698;28;20504;-75
2022/05/12 03:35:50;;;;;;;0.70;0.60;;;21.20;57.50;;;;;;5003397;28;20461;-75
2022/05/12 03:38:17;;;;;;;0.67;0.60;;;21.20;57.80;;;;;;5003179;28;20552;-75
2022/05/12 03:40:44;;;;;;;0.90;0.67;;;21.20;57.90;;;;;;5003251;28;20476;-75
2022/05/12 03:43:10;;;;;;;0.70;0.70;;;21.10;58.00;;;;;;5002769;28;20445;-75
2022/05/12 03:45:36;;;;;;;0.87;0.70;;;21.10;58.30;;;;;;5002544;28;20445;-75
2022/05/12 03:48:04;;;;;;;0.70;0.60;;;21.00;58.70;;;;;;5000386;28;20479;-75
2022/05/12 03:50:30;;;;;;;0.70;0.60;;;21.10;58.70;;;;;;5001537;28;20239;-73
2022/05/12 03:52:58;;;;;;;0.70;0.60;;;21.00;59.10;;;;;;5001760;28;20520;-73
2022/05/12 03:55:27;;;;;;;0.70;0.70;;;20.90;59.40;;;;;;5001448;28;20527;-73
2022/05/12 03:57:55;;;;;;;0.80;0.70;;;21.00;59.30;;;;;;5000976;28;20956;-72
2022/05/12 04:00:24;;;;;;;0.90;0.70;;;21.00;59.40;;;;;;5001114;28;20454;-73
2022/05/12 04:02:51;;;;;;;0.80;0.60;;;21.00;59.40;;;;;;5000364;28;20523;-72
2022/05/12 04:05:20;;;;;;;0.90;0.70;;;21.00;59.60;;;;;;5000736;28;20504;-73
2022/05/12 04:07:47;;;;;;;0.80;0.60;;;21.00;59.60;;;;;;5000505;28;20551;-72
2022/05/12 04:10:16;;;;;;;0.70;0.53;;;21.10;59.40;;;;;;5000450;28;20453;-72
2022/05/12 04:12:43;;;;;;;1.33;0.70;;;21.10;59.40;;;;;;5000309;28;20449;-72
2022/05/12 04:15:11;;;;;;;0.90;0.90;;;21.10;59.60;;;;;;5001100;28;20449;-73
2022/05/12 04:17:38;;;;;;;0.97;0.53;;;21.10;59.70;;;;;;4999856;28;20476;-72
2022/05/12 04:20:07;;;;;;;0.80;0.50;;;21.20;59.30;;;;;;5000648;28;20476;-73
2022/05/12 04:22:34;;;;;;;0.70;0.67;;;21.20;59.70;;;;;;5000889;28;20449;-72
2022/05/12 04:25:01;;;;;;;0.83;0.60;;;21.20;59.60;;;;;;5000941;28;20449;-73
2022/05/12 04:27:29;;;;;;;0.70;0.63;;;21.30;59.40;;;;;;5000349;28;20480;-73
2022/05/12 04:29:55;;;;;;;0.70;0.70;;;21.40;59.60;;;;;;5000684;28;20545;-72
2022/05/12 04:32:24;;;;;;;0.70;0.60;;;21.40;59.20;;;;;;5000644;28;20540;-73
2022/05/12 04:37:36;;;;;;;0.70;0.60;;;21.60;59.20;;;;;;5000939;28;20448;-73
2022/05/12 04:40:08;;;;;;;0.60;0.50;;;21.50;59.00;;;;;;5000378;28;20983;-73
2022/05/12 04:42:36;;;;;;;0.70;0.60;;;21.50;59.00;;;;;;5000806;28;20433;-73
2022/05/12 04:45:04;;;;;;;0.70;0.70;;;21.60;59.10;;;;;;5000811;28;20489;-73
2022/05/12 04:47:30;;;;;;;0.70;0.60;;;21.30;59.50;;;;;;5000728;28;20472;-72
2022/05/12 04:49:58;;;;;;;0.87;0.60;;;21.50;59.20;;;;;;5000382;28;21007;-73
2022/05/12 04:52:25;;;;;;;0.70;0.60;;;21.60;58.80;;;;;;5000488;28;20449;-73
2022/05/12 04:54:54;;;;;;;0.70;0.60;;;21.40;59.20;;;;;;5000297;28;20449;-73
2022/05/12 04:57:21;;;;;;;0.70;0.70;;;21.60;59.50;;;;;;5000085;28;20469;-72
2022/05/12 04:59:51;;;;;;;0.90;0.60;;;21.70;59.30;;;;;;4999973;28;20499;-73
2022/05/12 05:02:18;;;;;;;0.70;0.70;;;21.80;59.00;;;;;;4999845;28;20450;-73
2022/05/12 05:04:44;;;;;;;0.70;0.60;;;22.00;58.70;;;;;;5000831;28;20484;-73
2022/05/12 05:07:12;;;;;;;0.70;0.60;;;22.10;58.70;;;;;;5000102;28;20465;-72
2022/05/12 05:09:41;;;;;;;0.70;0.60;;;22.20;58.80;;;;;;5001177;28;20481;-73
2022/05/12 05:12:08;;;;;;;0.70;0.60;;;22.40;59.10;;;;;;5000584;28;20484;-73
2022/05/12 05:14:35;;;;;;;0.60;0.60;;;22.40;58.40;;;;;;5000742;28;20460;-73
2022/05/12 05:17:03;;;;;;;0.60;0.50;;;22.50;58.60;;;;;;4999849;28;20477;-72
2022/05/12 05:19:31;;;;;;;0.60;0.50;;;22.60;58.30;;;;;;5000167;28;20449;-73
2022/05/12 05:21:57;;;;;;;0.70;0.60;;;22.50;58.20;;;;;;5001132;28;20484;-73
2022/05/12 05:24:24;;;;;;;0.80;0.60;;;22.70;58.00;;;;;;5000059;28;20449;-72
2022/05/12 05:26:51;;;;;;;1.33;0.70;;;22.80;58.00;;;;;;4999849;28;20473;-73
2022/05/12 05:29:17;;;;;;;0.60;0.50;;;22.90;57.70;;;;;;4998565;28;20481;-73
2022/05/12 05:31:44;;;;;;;0.60;0.50;;;23.00;57.30;;;;;;4999657;28;20449;-72
2022/05/12 05:34:12;;;;;;;0.60;0.60;;;23.10;57.20;;;;;;5000209;28;20445;-73
2022/05/12 05:36:42;;;;;;;0.80;0.60;;;23.20;56.90;;;;;;5000235;28;20516;-72
2022/05/12 05:39:09;;;;;;;0.70;0.60;;;23.40;56.90;;;;;;4999591;28;20516;-73
2022/05/12 05:41:36;;;;;;;0.70;0.60;;;23.60;56.40;;;;;;5000030;28;20492;-72
2022/05/12 05:44:03;;;;;;;0.60;0.60;;;23.60;57.20;;;;;;4999710;28;20461;-75
2022/05/12 05:46:30;;;;;;;0.80;0.63;;;23.70;56.30;;;;;;5000862;28;20461;-75
2022/05/12 05:48:56;;;;;;;0.70;0.60;;;23.80;56.70;;;;;;4999796;28;20485;-75
2022/05/12 05:54:09;;;;;;;0.70;0.50;;;23.80;56.10;;;;;;4998438;28;20417;-73
2022/05/12 05:56:36;;;;;;;0.60;0.50;;;23.60;56.50;;;;;;4998017;28;20523;-72
2022/05/12 05:59:02;;;;;;;0.80;0.70;;;23.80;56.70;;;;;;4998450;28;20446;-73
2022/05/12 06:01:30;;;;;;;0.73;0.57;;;23.90;56.30;;;;;;4999664;28;20920;-72
2022/05/12 06:03:58;;;;;;;0.60;0.50;;;24.00;56.40;;;;;;4999512;28;20448;-73
2022/05/12 06:06:26;;;;;;;0.70;0.60;;;24.10;55.70;;;;;;4999670;28;20830;-73
2022/05/12 06:08:53;;;;;;;0.70;0.60;;;24.20;56.00;;;;;;4998074;28;20692;-73
2022/05/12 06:11:19;;;;;;;0.60;0.50;;;24.20;55.70;;;;;;4998252;28;20503;-72
2022/05/12 06:13:47;;;;;;;0.60;0.60;;;24.30;55.40;;;;;;4997138;28;20480;-73
2022/05/12 06:16:15;;;;;;;0.60;0.60;;;24.50;54.80;;;;;;4998503;28;20496;-73
2022/05/12 06:18:42;;;;;;;1.03;0.93;;;24.60;54.80;;;;;;4997568;28;20453;-72
2022/05/12 06:21:09;;;;;;;0.63;0.60;;;24.60;54.30;;;;;;4998715;28;20457;-73
2022/05/12 06:23:38;;;;;;;0.63;0.60;;;24.40;55.00;;;;;;4998143;28;20456;-73
2022/05/12 06:26:06;;;;;;;0.60;0.50;;;24.60;55.20;;;;;;4998852;28;20469;-73
2022/05/12 06:28:33;;;;;;;0.70;0.60;;;24.90;54.70;;;;;;4998509;28;20504;-72
2022/05/12 06:30:59;;;;;;;0.90;0.60;;;25.00;53.80;;;;;;4997512;28;20449;-73
2022/05/12 06:33:26;;;;;;;0.77;0.60;;;24.90;53.90;;;;;;4998773;28;20449;-73
2022/05/12 06:35:55;;;;;;;0.73;0.60;;;25.00;54.40;;;;;;4997350;28;20465;-73
2022/05/12 06:38:22;;;;;;;0.60;0.50;;;25.10;53.90;;;;;;4997705;28;20544;-73
2022/05/12 06:40:50;;;;;;;0.70;0.60;;;25.40;53.70;;;;;;5000587;28;20445;-73
2022/05/12 06:43:17;;;;;;;0.70;0.53;;;25.40;53.30;;;;;;5002561;28;20952;-73
2022/05/12 06:45:43;;;;;;;0.70;0.70;;;25.60;53.60;;;;;;5001591;28;20448;-73
2022/05/12 06:48:10;;;;;;;0.60;0.60;;;25.40;52.90;;;;;;5001390;28;20932;-72
2022/05/12 06:50:37;;;;;;;0.73;0.60;;;25.10;52.80;;;;;;5001087;28;20480;-73
2022/05/12 06:53:05;;;;;;;0.70;0.60;;;24.90;53.40;;;;;;5001521;28;20480;-73
2022/05/12 06:55:32;;;;;;;0.60;0.60;;;24.50;54.10;;;;;;5002139;28;21015;-72
2022/05/12 06:58:00;;;;;;;0.60;0.60;;;24.10;55.40;;;;;;5001574;28;20458;-73
2022/05/12 07:00:26;;;;;;;0.70;0.60;;;24.00;56.30;;;;;;5001651;28;20480;-73
2022/05/12 07:02:53;;;;;;;0.77;0.73;;;24.00;56.10;;;;;;5002084;28;20451;-72
2022/05/12 07:05:23;;;;;;;1.20;0.60;;;24.10;56.30;;;;;;5001834;28;20797;-72
2022/05/12 07:07:50;;;;;;;0.70;0.67;;;24.10;57.70;;;;;;5001058;28;20473;-72
2022/05/12 07:10:18;;;;;;;0.80;0.60;;;24.10;56.30;;;;;;5001431;28;20489;-73
2022/05/12 07:12:46;;;;;;;0.80;0.60;;;24.10;56.60;;;;;;5000714;28;20507;-72
2022/05/12 07:15:15;;;;;;;0.70;0.60;;;24.50;55.90;;;;;;4999969;28;20998;-73
2022/05/12 07:17:43;;;;;;;0.70;0.50;;;24.70;55.00;;;;;;4999641;28;21007;-75
2022/05/12 07:28:27;;;;;;;0.70;0.60;;;24.60;55.10;;;;;;5001044;28;20409;-73
2022/05/12 07:31:01;;;;;;;0.90;0.70;;;24.70;55.40;;;;;;5001397;28;20936;-73
2022/05/12 07:33:28;;;;;;;0.70;0.60;;;24.80;55.30;;;;;;5002499;28;20441;-73
2022/05/12 07:35:55;;;;;;;0.67;0.57;;;25.00;56.00;;;;;;5002037;28;20516;-73
2022/05/12 07:38:22;;;;;;;0.70;0.60;;;25.10;56.10;;;;;;5001533;28;20445;-73
2022/05/12 07:40:48;;;;;;;0.60;0.50;;;25.10;56.50;;;;;;5000344;28;20476;-73
2022/05/12 07:43:15;;;;;;;0.70;0.50;;;25.00;55.50;;;;;;5000447;28;20453;-73
2022/05/12 07:45:42;;;;;;;0.63;0.60;;;24.90;55.20;;;;;;5000149;28;20449;-73
2022/05/12 07:48:11;;;;;;;0.70;0.60;;;24.70;55.70;;;;;;5002203;28;20499;-74
2022/05/12 07:50:39;;;;;;;0.60;0.50;;;24.50;56.20;;;;;;5000938;28;20889;-74
2022/05/12 07:53:05;;;;;;;0.70;0.63;;;24.50;56.80;;;;;;4997643;28;20944;-73
2022/05/12 07:55:33;;;;;;;0.70;0.60;;;24.50;56.50;;;;;;4999292;28;20449;-74
2022/05/12 07:58:00;;;;;;;0.70;0.67;;;24.50;56.00;;;;;;5000287;28;20457;-73
2022/05/12 08:00:28;;;;;;;0.63;0.60;;;24.70;56.60;;;;;;5000528;28;20456;-73
2022/05/12 08:02:56;;;;;;;0.70;0.70;;;24.70;56.30;;;;;;5000940;28;20461;-74
2022/05/12 08:05:24;;;;;;;1.40;0.50;;;24.60;56.20;;;;;;4999928;28;20453;-73
2022/05/12 08:07:52;;;;;;;0.70;0.60;;;24.60;55.80;;;;;;5000553;28;20456;-74
2022/05/12 08:10:19;;;;;;;1.20;0.60;;;24.60;55.90;;;;;;5001901;28;20472;-73
2022/05/12 08:12:46;;;;;;;0.60;0.50;;;24.50;57.50;;;;;;5002633;28;20512;-74
2022/05/12 08:15:13;;;;;;;0.80;0.50;;;24.60;57.50;;;;;;5002209;28;20449;-74
2022/05/12 08:17:40;;;;;;;0.70;0.60;;;24.60;56.90;;;;;;5002681;28;20481;-73
2022/05/12 08:20:08;;;;;;;1.10;0.90;;;24.70;57.30;;;;;;5000970;28;20512;-73
2022/05/12 08:22:36;;;;;;;0.70;0.60;;;24.90;56.30;;;;;;5000668;28;20860;-73
2022/05/12 08:25:04;;;;;;;0.60;0.50;;;25.10;56.10;;;;;;5001173;28;20472;-74
2022/05/12 08:27:32;;;;;;;1.23;0.60;;;25.30;55.70;;;;;;5001940;28;20477;-74
2022/05/12 08:29:58;;;;;;;1.00;0.50;;;25.70;54.60;;;;;;5001660;28;20500;-73
2022/05/12 08:32:25;;;;;;;0.63;0.60;;;26.00;54.40;;;;;;4999798;28;20484;-73
2022/05/12 08:34:52;;;;;;;1.47;0.87;;;26.10;54.80;;;;;;4998732;28;20484;-73
2022/05/12 08:37:18;;;;;;;0.60;0.50;;;25.90;54.20;;;;;;4995649;28;20527;-72
2022/05/12 08:39:46;;;;;;;1.30;0.60;;;26.10;54.70;;;;;;4995755;28;20457;-72
2022/05/12 08:42:19;;;;;;;0.80;0.70;;;26.20;54.70;;;;;;4995771;28;20449;-72
2022/05/12 08:44:46;;;;;;;0.70;0.70;;;26.10;54.10;;;;;;4995761;28;20433;-72
2022/05/12 08:47:15;;;;;;;0.70;0.60;;;26.10;53.70;;;;;;4995592;28;20469;-72
2022/05/12 08:49:44;;;;;;;0.70;0.60;;;25.90;53.90;;;;;;4995526;28;20489;-72
2022/05/12 08:52:16;;;;;;;0.90;0.60;;;25.70;54.10;;;;;;4995179;28;20507;-72
2022/05/12 08:54:51;;;;;;;0.70;0.60;;;25.60;54.40;;;;;;4995547;28;20433;-72
2022/05/12 08:57:29;;;;;;;0.90;0.60;;;25.70;56.60;;;;;;4995072;28;20460;-72
2022/05/12 08:59:57;;;;;;;0.70;0.60;;;25.80;55.40;;;;;;4995275;28;20516;-72
2022/05/12 09:02:34;;;;;;;1.20;0.63;;;25.90;54.70;;;;;;4996207;28;20536;-74
2022/05/12 09:05:06;;;;;;;0.60;0.50;;;26.00;54.60;;;;;;4998905;28;20432;-74
2022/05/12 09:07:38;;;;;;;0.70;0.60;;;26.10;54.50;;;;;;4998312;28;20469;-74
2022/05/12 09:10:31;;;;;;;0.70;0.60;;;26.10;53.70;;;;;;4997588;28;21019;-74
2022/05/12 09:13:00;;;;;;;0.60;0.60;;;26.20;54.10;;;;;;4998259;28;20859;-74
2022/05/12 09:15:30;;;;;;;0.60;0.50;;;26.20;54.10;;;;;;4998024;28;20453;-74
2022/05/12 09:17:59;;;;;;;0.70;0.50;;;26.20;54.90;;;;;;5099455;23;20493;-72
2022/05/12 09:20:29;;;;;;;0.70;0.67;;;26.00;54.90;;;;;;4994615;28;20449;-73
2022/05/12 09:22:56;;;;;;;0.70;0.60;;;26.00;55.50;;;;;;4994584;28;20452;-72
2022/05/12 09:25:36;;;;;;;0.70;0.70;;;25.90;54.10;;;;;;4994462;28;20445;-72
2022/05/12 09:28:19;;;;;;;0.80;0.60;;;26.00;54.00;;;;;;4994369;28;20472;-72
2022/05/12 09:30:48;;;;;;;0.70;0.60;;;25.50;54.90;;;;;;4994004;28;20880;-71
2022/05/12 09:33:24;;;;;;;0.80;0.80;;;25.60;57.00;;;;;;4994330;28;20477;-72
2022/05/12 09:35:54;;;;;;;0.60;0.50;;;25.50;55.30;;;;;;4994391;28;20433;-72
2022/05/12 09:38:25;;;;;;;1.13;0.60;;;25.70;56.00;;;;;;4994206;28;20476;-72
2022/05/12 09:40:53;;;;;;;0.60;0.60;;;25.80;55.20;;;;;;4994238;28;20456;-72
2022/05/12 09:43:28;;;;;;;0.70;0.60;;;25.90;55.30;;;;;;4993848;28;20449;-72
2022/05/12 09:46:05;;;;;;;0.70;0.63;;;25.80;54.20;;;;;;4994094;28;20516;-72
2022/05/12 09:48:33;;;;;;;1.13;0.60;;;25.50;54.90;;;;;;4994130;28;20425;-71
2022/05/12 09:51:29;;;;;;;0.70;0.60;;;25.70;54.70;;;;;;4993956;28;20484;-72
2022/05/12 09:54:15;;;;;;;1.33;0.60;;;26.00;55.40;;;;;;4993669;28;20814;-72
2022/05/12 09:56:46;;;;;;;0.70;0.60;;;26.40;54.50;;;;;;4993915;28;20557;-72
2022/05/12 09:59:24;;;;;;;0.70;0.70;;;26.30;53.50;;;;;;4993634;28;20924;-72
2022/05/12 10:01:54;;;;;;;2.00;0.70;;;26.10;54.20;;;;;;4993916;28;20553;-72
2022/05/12 10:10:07;;;;;;;0.70;0.70;;;25.30;56.10;;;;;;4993514;28;20468;-72
2022/05/12 10:12:41;;;;;;;0.70;0.63;;;25.30;56.00;;;;;;4993411;28;20905;-73
2022/05/12 10:15:16;;;;;;;0.70;0.60;;;24.90;56.60;;;;;;4993326;28;20433;-71
2022/05/12 10:17:46;;;;;;;1.30;0.90;;;25.10;55.40;;;;;;4993297;28;20484;-71
2022/05/12 10:20:18;;;;;;;0.67;0.60;;;25.10;55.00;;;;;;4993603;28;20441;-72
2022/05/12 10:22:51;;;;;;;0.90;0.60;;;25.30;56.10;;;;;;4993665;28;20437;-72
2022/05/12 10:25:24;;;;;;;0.83;0.70;;;25.60;56.40;;;;;;4993420;28;20491;-72
2022/05/12 10:27:59;;;;;;;0.70;0.70;;;26.00;53.40;;;;;;4993550;28;20465;-72
2022/05/12 10:30:39;;;;;;;0.70;0.70;;;26.10;54.50;;;;;;4993558;28;20468;-72
2022/05/12 10:33:24;;;;;;;0.80;0.70;;;26.20;51.90;;;;;;4993641;28;20453;-71
2022/05/12 10:36:04;;;;;;;0.70;0.60;;;26.10;53.40;;;;;;4993589;28;20496;-72
2022/05/12 10:38:39;;;;;;;0.60;0.60;;;25.90;53.60;;;;;;4993492;28;20436;-72
2022/05/12 10:41:14;;;;;;;2.50;0.80;;;25.60;54.60;;;;;;4993455;28;20495;-72
2022/05/12 10:44:08;;;;;;;0.70;0.60;;;25.50;54.00;;;;;;4993379;28;20444;-72
2022/05/12 10:46:44;;;;;;;0.60;0.57;;;25.30;54.90;;;;;;4992913;28;20992;-71
2022/05/12 10:49:21;;;;;;;1.33;0.60;;;25.40;55.80;;;;;;4993380;28;20447;-72
2022/05/12 10:52:01;;;;;;;0.77;0.70;;;25.80;54.70;;;;;;4993331;28;20440;-71
2022/05/12 10:54:36;;;;;;;0.70;0.63;;;25.90;54.40;;;;;;4993364;28;20433;-70
2022/05/12 10:57:18;;;;;;;0.80;0.60;;;25.80;55.50;;;;;;4993359;28;20773;-71
2022/05/12 11:00:08;;;;;;;1.20;0.70;;;25.80;54.40;;;;;;4993254;28;20437;-70
2022/05/12 11:02:40;;;;;;;0.70;0.60;;;26.00;54.80;;;;;;4993933;28;20524;-72
2022/05/12 11:05:17;;;;;;;1.27;0.70;;;26.10;53.60;;;;;;4993405;28;20445;-72
2022/05/12 11:07:48;;;;;;;0.70;0.60;;;26.20;53.00;;;;;;4995138;28;20476;-73
2022/05/12 11:10:24;;;;;;;0.70;0.70;;;26.50;51.80;;;;;;4995840;28;20482;-73
2022/05/12 11:12:53;;;;;;;0.77;0.67;;;26.60;51.70;;;;;;4995377;28;20441;-72
2022/05/12 11:15:23;;;;;;;0.70;0.70;;;26.30;53.20;;;;;;4995834;28;20449;-73
2022/05/12 11:17:57;;;;;;;1.00;0.70;;;26.40;53.50;;;;;;4995177;28;20548;-72
2022/05/12 11:20:28;;;;;;;0.70;0.60;;;26.70;54.20;;;;;;4994935;28;21009;-71
2022/05/12 11:23:07;;;;;;;0.70;0.70;;;26.70;52.40;;;;;;4995966;28;20441;-73
2022/05/12 11:25:41;;;;;;;0.80;0.70;;;26.60;53.90;;;;;;4995996;28;20453;-72
2022/05/12 11:31:09;;;;;;;0.80;0.70;;;27.10;51.30;;;;;;4998562;28;20456;-72
2022/05/12 11:33:40;;;;;;;0.90;0.70;;;27.00;52.00;;;;;;4998527;28;20433;-72
2022/05/12 11:36:09;;;;;;;0.70;0.70;;;27.30;53.10;;;;;;4998333;28;20816;-72
2022/05/12 11:38:49;;;;;;;0.70;0.70;;;27.30;49.80;;;;;;4999112;28;20456;-71
2022/05/12 11:41:48;;;;;;;0.70;0.60;;;27.40;52.20;;;;;;4998133;28;20433;-72
2022/05/12 11:44:34;;;;;;;0.70;0.60;;;27.40;51.40;;;;;;4997676;28;20484;-72
2022/05/12 11:47:32;;;;;;;0.70;0.57;;;27.50;51.60;;;;;;4996898;28;20967;-72
2022/05/12 11:50:34;;;;;;;0.70;0.70;;;27.80;51.60;;;;;;4996804;28;20476;-73
2022/05/12 11:53:04;;;;;;;0.70;0.60;;;27.90;51.10;;;;;;4997273;28;20432;-73
2022/05/12 11:55:34;;;;;;;0.70;0.70;;;27.90;50.80;;;;;;4997361;28;20441;-71
2022/05/12 11:58:06;;;;;;;0.80;0.70;;;27.90;51.00;;;;;;4996894;28;20531;-73
2022/05/12 12:00:55;;;;;;;1.17;0.60;;;28.00;52.00;;;;;;4997808;28;20437;-71
2022/05/12 12:03:58;;;;;;;0.77;0.77;;;28.20;49.40;;;;;;4997337;28;20461;-73
2022/05/12 12:06:49;;;;;;;0.67;0.63;;;28.00;48.20;;;;;;4995193;28;20484;-72
2022/05/12 12:09:54;;;;;;;0.70;0.60;;;28.30;50.50;;;;;;4994276;28;20464;-73
2022/05/12 12:12:51;;;;;;;0.80;0.80;;;28.40;47.40;;;;;;4991946;28;20480;-72
2022/05/12 12:15:38;;;;;;;0.70;0.70;;;28.30;47.90;;;;;;4997287;28;20445;-73
2022/05/12 12:18:56;;;;;;;0.60;0.60;;;28.60;48.30;;;;;;4996605;28;20473;-73
2022/05/12 12:21:38;;;;;;;1.03;0.83;;;28.70;47.30;;;;;;4996693;28;20430;-73
2022/05/12 12:24:17;;;;;;;0.70;0.60;;;28.70;47.40;;;;;;4996870;28;20498;-72
2022/05/12 12:26:44;;;;;;;1.20;0.70;;;28.40;47.60;;;;;;4996437;28;20461;-73
2022/05/12 12:29:17;;;;;;;0.70;0.70;;;28.10;47.80;;;;;;4996170;28;20453;-73
2022/05/12 12:31:45;;;;;;;0.80;0.60;;;28.00;48.30;;;;;;4996583;28;20485;-74
2022/05/12 12:34:17;;;;;;;0.80;0.70;;;27.80;47.10;;;;;;4996559;28;20446;-73
2022/05/12 12:37:00;;;;;;;1.63;0.90;;;27.70;47.40;;;;;;4996249;28;20472;-72
2022/05/12 12:39:40;;;;;;;0.70;0.70;;;27.80;48.10;;;;;;4996774;28;20483;-72
2022/05/12 12:42:20;;;;;;;0.70;0.70;;;28.00;49.00;;;;;;4997103;28;20442;-72
2022/05/12 12:44:51;;;;;;;0.70;0.60;;;28.20;47.20;;;;;;4996885;28;20437;-72
2022/05/12 12:47:27;;;;;;;0.60;0.60;;;28.20;47.10;;;;;;4996575;28;20949;-73
2022/05/12 12:50:09;;;;;;;1.73;0.67;;;28.50;47.90;;;;;;4996214;28;20426;-72
2022/05/12 12:52:40;;;;;;;0.73;0.73;;;28.70;45.70;;;;;;4995870;28;20434;-71
2022/05/12 12:58:02;;;;;;;0.70;0.70;;;28.60;45.10;;;;;;4995280;28;20453;-72
2022/05/12 13:00:33;;;;;;;0.67;0.60;;;28.60;46.00;;;;;;4996209;28;20441;-72
2022/05/12 13:03:01;;;;;;;0.70;0.70;;;28.70;45.40;;;;;;4995421;28;20784;-72
2022/05/12 13:05:29;;;;;;;0.70;0.70;;;28.80;45.20;;;;;;4994827;28;20531;-72
2022/05/12 13:07:58;;;;;;;0.60;0.60;;;28.70;45.10;;;;;;4994448;28;20469;-71
2022/05/12 13:10:29;;;;;;;0.60;0.57;;;28.60;45.50;;;;;;4995288;28;20587;-71
2022/05/12 13:13:00;;;;;;;0.60;0.57;;;28.50;45.30;;;;;;4994954;28;20441;-72
2022/05/12 13:15:28;;;;;;;0.70;0.70;;;28.50;45.30;;;;;;4994801;28;20440;-71
2022/05/12 13:17:58;;;;;;;0.60;0.60;;;28.20;45.90;;;;;;4994193;28;20862;-73
2022/05/12 13:20:32;;;;;;;0.70;0.63;;;27.90;45.90;;;;;;4994623;28;20473;-71
2022/05/12 13:23:05;;;;;;;0.80;0.80;;;27.70;46.40;;;;;;4994659;28;20441;-72
2022/05/12 13:25:36;;;;;;;0.87;0.73;;;27.70;46.10;;;;;;4994671;28;20544;-71
2022/05/12 13:28:06;;;;;;;1.00;0.83;;;27.80;46.10;;;;;;4994537;28;20465;-72
2022/05/12 13:30:39;;;;;;;0.80;0.80;;;27.90;46.70;;;;;;4994438;28;20465;-72
2022/05/12 13:33:12;;;;;;;0.70;0.70;;;28.00;46.60;;;;;;4994422;28;20495;-72
2022/05/12 13:35:39;;;;;;;0.70;0.70;;;28.00;46.00;;;;;;4994371;28;20500;-71
2022/05/12 13:38:10;;;;;;;0.90;0.80;;;28.10;46.70;;;;;;4994250;28;20469;-72
2022/05/12 13:40:45;;;;;;;1.00;0.70;;;28.00;45.60;;;;;;4994326;28;20433;-72
2022/05/12 13:43:31;;;;;;;0.70;0.70;;;27.90;46.20;;;;;;4994276;28;20432;-72
2022/05/12 13:46:11;;;;;;;0.63;0.63;;;27.90;45.70;;;;;;4994144;28;20434;-72
2022/05/12 13:48:53;;;;;;;0.70;0.63;;;27.90;46.20;;;;;;4994310;28;20441;-71
2022/05/12 13:51:46;;;;;;;0.63;0.60;;;27.90;46.90;;;;;;4993779;28;20469;-73
2022/05/12 13:54:24;;;;;;;0.77;0.63;;;27.90;47.30;;;;;;4993881;28;20920;-72
2022/05/12 13:56:52;;;;;;;0.70;0.70;;;28.10;46.80;;;;;;4993991;28;20514;-72
2022/05/12 13:59:26;;;;;;;1.27;0.80;;;28.10;46.70;;;;;;4993929;28;20523;-71
2022/05/12 14:02:13;;;;;;;0.80;0.73;;;28.00;46.50;;;;;;4993837;28;20430;-70
2022/05/12 14:04:40;;;;;;;0.60;0.60;;;28.10;48.20;;;;;;4993845;28;20437;-72
2022/05/12 14:07:07;;;;;;;0.70;0.70;;;28.10;49.80;;;;;;4993348;28;20834;-72
2022/05/12 14:09:37;;;;;;;0.60;0.60;;;27.80;51.00;;;;;;4993706;28;20445;-73
2022/05/12 14:12:09;;;;;;;0.70;0.70;;;27.90;51.90;;;;;;4993583;28;20491;-73
2022/05/12 14:20:10;;;;;;;0.70;0.63;;;28.10;52.70;;;;;;4993512;28;20509;-72
2022/05/12 14:22:37;;;;;;;0.73;0.70;;;28.10;53.10;;;;;;4993582;28;20433;-71
2022/05/12 14:25:05;;;;;;;1.13;0.80;;;28.10;53.70;;;;;;4993455;28;20492;-72
2022/05/12 14:27:33;;;;;;;0.70;0.60;;;28.20;53.00;;;;;;4993997;28;20464;-72
2022/05/12 14:30:00;;;;;;;0.67;0.57;;;28.30;51.10;;;;;;4993829;28;20456;-72
2022/05/12 14:32:35;;;;;;;0.70;0.60;;;28.00;52.00;;;;;;4993452;28;20480;-72
2022/05/12 14:35:02;;;;;;;0.70;0.60;;;27.90;53.10;;;;;;4993582;28;20437;-72
2022/05/12 14:37:31;;;;;;;0.70;0.70;;;27.90;53.00;;;;;;4993490;28;20468;-72
2022/05/12 14:39:58;;;;;;;0.60;0.60;;;27.70;53.80;;;;;;4993603;28;20492;-72
2022/05/12 14:42:25;;;;;;;0.70;0.70;;;27.70;53.70;;;;;;4993611;28;20503;-73
2022/05/12 14:44:54;;;;;;;0.70;0.60;;;27.70;53.40;;;;;;4993199;28;20901;-71
2022/05/12 14:47:24;;;;;;;0.90;0.60;;;27.80;54.20;;;;;;4993309;28;20465;-71
2022/05/12 14:49:51;;;;;;;0.80;0.60;;;27.60;54.80;;;;;;4993421;28;20468;-72
2022/05/12 14:52:20;;;;;;;0.83;0.70;;;27.60;54.00;;;;;;4993444;28;20485;-71
2022/05/12 14:54:49;;;;;;;0.70;0.60;;;27.60;54.10;;;;;;4993583;28;20445;-71
2022/05/12 14:57:16;;;;;;;0.90;0.70;;;27.60;54.40;;;;;;4993486;28;20472;-71
2022/05/12 14:59:44;;;;;;;0.70;0.67;;;27.60;55.00;;;;;;4993217;28;20516;-70
2022/05/12 15:02:16;;;;;;;0.90;0.70;;;27.40;54.80;;;;;;4996057;28;20445;-72
2022/05/12 15:04:44;;;;;;;0.80;0.70;;;27.40;54.70;;;;;;4997379;28;20429;-72
2022/05/12 15:07:12;;;;;;;1.20;0.70;;;27.50;54.40;;;;;;4997046;28;20477;-71
2022/05/12 15:09:39;;;;;;;1.00;0.70;;;27.60;54.30;;;;;;4997038;28;20461;-71
2022/05/12 15:12:06;;;;;;;1.40;0.70;;;27.60;53.30;;;;;;4996535;28;20905;-71
2022/05/12 15:14:33;;;;;;;0.70;0.60;;;27.70;53.70;;;;;;4997077;28;20452;-71
2022/05/12 15:17:00;;;;;;;0.70;0.60;;;27.70;53.50;;;;;;5005332;23;20497;-72
2022/05/12 15:19:28;;;;;;;0.90;0.60;;;27.70;53.90;;;;;;4996941;28;20484;-72
2022/05/12 15:21:55;;;;;;;0.70;0.60;;;27.70;54.30;;;;;;4997687;28;20433;-72
2022/05/12 15:24:22;;;;;;;0.63;0.57;;;27.70;53.70;;;;;;4997397;28;20495;-72
2022/05/12 15:26:48;;;;;;;0.70;0.63;;;27.70;53.40;;;;;;4996545;28;20473;-72
2022/05/12 15:29:15;;;;;;;0.70;0.70;;;27.60;53.20;;;;;;4996700;28;20444;-71
2022/05/12 15:31:43;;;;;;;1.03;0.60;;;27.60;53.30;;;;;;4996466;28;20580;-71
2022/05/12 15:34:11;;;;;;;0.70;0.70;;;27.50;53.80;;;;;;4996389;28;21008;-71
2022/05/12 15:36:42;;;;;;;0.90;0.70;;;27.30;53.70;;;;;;4996427;28;20507;-71
2022/05/12 15:39:13;;;;;;;0.60;0.60;;;27.30;53.70;;;;;;4996747;28;20429;-72
2022/05/12 15:41:40;;;;;;;0.70;0.60;;;27.10;53.60;;;;;;4996529;28;20479;-72
2022/05/12 15:44:09;;;;;;;0.70;0.60;;;26.90;54.40;;;;;;4996323;28;20932;-72
2022/05/12 15:46:36;;;;;;;0.80;0.70;;;26.90;54.10;;;;;;4996253;28;20448;-72
2022/05/12 15:49:04;;;;;;;1.43;0.70;;;26.90;54.40;;;;;;4996353;28;20448;-71
2022/05/12 15:51:31;;;;;;;3.17;0.80;;;26.80;54.70;;;;;;4996538;28;20496;-74
2022/05/12 15:53:59;;;;;;;1.40;0.90;;;26.70;55.30;;;;;;4996315;28;20449;-71
2022/05/12 15:56:26;;;;;;;1.10;1.00;;;26.70;55.30;;;;;;4996056;28;20510;-72
2022/05/12 15:58:52;;;;;;;2.13;0.90;;;26.50;54.60;;;;;;4996013;28;20449;-71
2022/05/12 16:01:21;;;;;;;1.63;1.00;;;26.40;55.00;;;;;;4996185;28;20523;-71
2022/05/12 16:03:48;;;;;;;0.90;0.70;;;26.40;55.70;;;;;;4995944;28;20456;-72
2022/05/12 16:06:15;;;;;;;0.70;0.60;;;26.40;55.80;;;;;;4995945;28;20507;-72
2022/05/12 16:08:42;;;;;;;0.90;0.60;;;26.20;55.80;;;;;;4995800;28;20465;-72
2022/05/12 16:11:11;;;;;;;0.70;0.70;;;26.00;56.40;;;;;;4995817;28;20485;-72
2022/05/12 16:13:38;;;;;;;1.93;0.70;;;26.00;56.90;;;;;;4995202;28;20476;-72
2022/05/12 16:16:06;;;;;;;0.80;0.80;;;25.90;57.10;;;;;;4995798;28;20449;-71
2022/05/12 16:18:33;;;;;;;0.70;0.60;;;25.80;57.30;;;;;;4995570;28;20516;-73
2022/05/12 16:21:01;;;;;;;0.70;0.70;;;25.70;57.40;;;;;;4995754;28;20515;-71
2022/05/12 16:23:27;;;;;;;0.77;0.77;;;25.50;58.10;;;;;;4995550;28;20455;-71
2022/05/12 16:25:58;;;;;;;0.80;0.70;;;25.10;58.90;;;;;;4995679;28;20878;-71
2022/05/12 16:28:31;;;;;;;0.73;0.70;;;24.80;60.40;;;;;;4995279;28;20845;-72
2022/05/12 16:30:58;;;;;;;0.80;0.70;;;24.30;62.10;;;;;;4995332;28;20858;-72
2022/05/12 16:33:26;;;;;;;1.53;0.70;;;23.80;63.90;;;;;;4995429;28;20455;-70
2022/05/12 16:35:53;;;;;;;0.80;0.80;;;23.60;64.50;;;;;;4995422;28;20539;-72
2022/05/12 16:38:19;;;;;;;1.63;0.70;;;23.40;66.10;;;;;;4995381;28;20476;-72